Time;durP1;ratioP1;P1;durP2;ratioP2;P2;SDS_P1;SDS_P2;PMS_P1;PMS_P2;Temp;Humidity;BMP_temperature;BMP_pressure;BME280_temperature;BME280_humidity;BME280_pressure;Samples;Min_cycle;Max_cycle;Signal;HPM_P1;HPM_P2
2023/07/15 00:01:06;;;;;;;0.90;0.70;;;23.20;1.00;;;;;;5072559;28;20785;-58
2023/07/15 00:03:34;;;;;;;0.93;0.70;;;23.10;1.00;;;;;;5073147;28;20485;-58
2023/07/15 00:06:02;;;;;;;0.80;0.70;;;23.20;1.00;;;;;;5073374;28;20729;-58
2023/07/15 00:08:31;;;;;;;1.90;0.70;;;23.10;1.00;;;;;;5074192;28;20846;-58
2023/07/15 00:10:58;;;;;;;1.30;0.60;;;23.10;1.00;;;;;;5074365;28;20431;-58
2023/07/15 00:13:26;;;;;;;2.50;0.60;;;23.10;1.00;;;;;;5074982;28;20485;-58
2023/07/15 00:15:54;;;;;;;0.90;0.60;;;23.10;1.00;;;;;;5074253;28;20483;-57
2023/07/15 00:18:22;;;;;;;1.30;0.80;;;23.10;1.00;;;;;;5074084;28;20850;-58
2023/07/15 00:20:50;;;;;;;1.00;0.80;;;23.00;1.00;;;;;;5073759;28;20493;-58
2023/07/15 00:23:20;;;;;;;0.80;0.60;;;22.90;1.00;;;;;;5073251;28;20458;-58
2023/07/15 00:25:48;;;;;;;1.00;0.70;;;22.90;1.00;;;;;;5074287;28;20485;-58
2023/07/15 00:28:15;;;;;;;0.90;0.70;;;22.80;1.00;;;;;;5074000;28;20778;-58
2023/07/15 00:30:44;;;;;;;2.60;0.70;;;22.80;1.00;;;;;;5073834;28;20431;-58
2023/07/15 00:33:15;;;;;;;1.50;0.60;;;22.80;1.00;;;;;;5073625;28;20716;-58
2023/07/15 00:35:43;;;;;;;2.00;0.70;;;22.90;1.00;;;;;;5073100;28;20470;-59
2023/07/15 00:38:11;;;;;;;0.80;0.70;;;22.80;1.00;;;;;;5073540;28;20427;-59
2023/07/15 00:40:40;;;;;;;0.90;0.70;;;22.80;1.00;;;;;;5074126;28;20437;-59
2023/07/15 00:43:45;;;;;;;1.60;0.65;;;22.80;1.00;;;;;;5074131;28;20862;-58
2023/07/15 00:46:47;;;;;;;0.90;0.70;;;22.80;1.00;;;;;;5073891;28;20424;-59
2023/07/15 00:49:19;;;;;;;1.00;0.73;;;22.80;1.00;;;;;;5073289;28;20435;-59
2023/07/15 00:51:49;;;;;;;1.40;0.70;;;22.70;1.00;;;;;;5073710;28;20431;-59
2023/07/15 00:54:16;;;;;;;0.80;0.70;;;22.70;1.00;;;;;;5073555;28;20427;-59
2023/07/15 00:56:44;;;;;;;1.10;0.70;;;22.60;1.00;;;;;;5073395;28;20493;-59
2023/07/15 00:59:14;;;;;;;1.80;0.80;;;22.60;1.00;;;;;;5073629;28;20710;-59
2023/07/15 01:01:41;;;;;;;1.20;0.80;;;22.60;1.00;;;;;;5073087;28;20431;-59
2023/07/15 01:04:09;;;;;;;1.00;0.75;;;22.60;1.00;;;;;;5074381;28;20431;-59
2023/07/15 01:06:36;;;;;;;1.67;0.70;;;22.60;1.00;;;;;;5077440;28;20496;-58
2023/07/15 01:09:07;;;;;;;1.08;0.60;;;22.60;1.00;;;;;;5077172;28;20420;-59
2023/07/15 01:11:34;;;;;;;0.90;0.80;;;22.50;1.00;;;;;;5077886;28;20837;-58
2023/07/15 01:14:01;;;;;;;1.00;0.77;;;22.60;1.00;;;;;;5077882;28;20435;-58
2023/07/15 01:16:29;;;;;;;1.10;0.70;;;22.70;1.00;;;;;;5077534;28;20438;-59
2023/07/15 01:18:56;;;;;;;0.90;0.65;;;22.70;1.00;;;;;;5076868;28;20463;-58
2023/07/15 01:21:26;;;;;;;0.80;0.60;;;22.80;1.00;;;;;;5076577;28;20819;-58
2023/07/15 01:23:55;;;;;;;1.90;0.80;;;22.80;1.00;;;;;;5076415;28;20439;-58
2023/07/15 01:26:22;;;;;;;1.00;0.80;;;22.80;1.00;;;;;;5077457;28;20454;-58
2023/07/15 01:28:49;;;;;;;0.90;0.70;;;22.80;1.00;;;;;;5076654;28;20505;-58
2023/07/15 01:31:17;;;;;;;1.05;0.70;;;22.70;1.00;;;;;;5077261;28;20502;-59
2023/07/15 01:33:44;;;;;;;1.23;0.70;;;22.60;1.00;;;;;;5076489;28;20431;-58
2023/07/15 01:36:13;;;;;;;0.97;0.70;;;22.60;6.20;;;;;;5077063;28;20435;-58
2023/07/15 01:38:40;;;;;;;1.52;0.80;;;22.60;10.60;;;;;;5076571;28;20471;-59
2023/07/15 01:41:08;;;;;;;1.00;0.80;;;22.70;20.80;;;;;;5076293;28;20442;-58
2023/07/15 01:43:35;;;;;;;1.02;0.70;;;22.70;8.80;;;;;;5076368;28;20435;-59
2023/07/15 01:46:02;;;;;;;1.30;0.70;;;22.70;5.10;;;;;;5076676;28;20427;-59
2023/07/15 01:48:29;;;;;;;1.40;0.80;;;22.80;1.00;;;;;;5076697;28;20430;-59
2023/07/15 01:50:57;;;;;;;2.00;0.70;;;22.70;1.00;;;;;;5077158;28;20490;-59
2023/07/15 01:53:24;;;;;;;1.27;0.80;;;22.70;1.00;;;;;;5077458;28;20518;-59
2023/07/15 01:55:51;;;;;;;1.00;0.70;;;22.70;1.00;;;;;;5076285;28;20496;-58
2023/07/15 01:58:20;;;;;;;0.90;0.70;;;22.70;1.00;;;;;;5076653;28;20477;-59
2023/07/15 02:00:48;;;;;;;1.17;0.80;;;22.70;1.00;;;;;;5075996;28;20786;-58
2023/07/15 02:03:15;;;;;;;1.23;0.70;;;22.60;2.60;;;;;;5076917;28;20423;-59
2023/07/15 02:05:42;;;;;;;1.00;0.80;;;22.60;2.30;;;;;;5075982;28;20419;-58
2023/07/15 02:08:09;;;;;;;1.00;0.73;;;22.60;5.20;;;;;;5076482;28;20436;-59
2023/07/15 02:10:36;;;;;;;1.10;0.80;;;22.60;12.30;;;;;;5076940;28;20427;-59
2023/07/15 02:13:03;;;;;;;0.80;0.60;;;22.50;19.50;;;;;;5076576;28;20431;-59
2023/07/15 02:15:31;;;;;;;1.00;0.70;;;22.50;26.90;;;;;;5075807;28;20424;-58
2023/07/15 02:17:58;;;;;;;1.70;0.70;;;22.50;26.90;;;;;;5075556;28;20766;-58
2023/07/15 02:20:26;;;;;;;1.50;1.00;;;22.50;23.70;;;;;;5075606;28;20431;-59
2023/07/15 02:22:53;;;;;;;1.10;0.80;;;22.60;20.30;;;;;;5076166;28;20427;-59
2023/07/15 02:25:20;;;;;;;1.00;0.70;;;22.60;13.50;;;;;;5076227;28;20433;-58
2023/07/15 02:27:49;;;;;;;1.00;0.70;;;22.60;4.80;;;;;;5076290;28;20466;-59
2023/07/15 02:30:16;;;;;;;1.50;0.70;;;22.70;1.00;;;;;;5075923;28;20420;-58
2023/07/15 02:32:45;;;;;;;1.60;0.70;;;22.70;1.00;;;;;;5075790;28;20424;-59
2023/07/15 02:35:13;;;;;;;1.30;0.80;;;22.80;1.00;;;;;;5075948;28;20431;-59
2023/07/15 02:37:42;;;;;;;0.93;0.70;;;22.70;1.00;;;;;;5075493;28;20443;-59
2023/07/15 02:40:10;;;;;;;0.80;0.70;;;22.80;1.00;;;;;;5075250;28;20431;-59
2023/07/15 02:42:37;;;;;;;1.23;0.70;;;22.80;1.00;;;;;;5075126;28;20438;-59
2023/07/15 02:45:07;;;;;;;1.30;0.80;;;22.80;1.00;;;;;;5075533;28;20965;-59
2023/07/15 02:47:34;;;;;;;0.90;0.70;;;22.90;1.00;;;;;;5075246;28;20468;-59
2023/07/15 02:50:04;;;;;;;1.38;1.00;;;22.90;1.00;;;;;;5075548;28;20495;-58
2023/07/15 02:52:32;;;;;;;1.60;0.60;;;22.90;1.00;;;;;;5075785;28;20518;-59
2023/07/15 02:55:01;;;;;;;0.90;0.70;;;22.90;1.00;;;;;;5076206;28;20435;-58
2023/07/15 02:57:28;;;;;;;1.00;0.70;;;22.90;1.00;;;;;;5074525;28;20435;-58
2023/07/15 02:59:55;;;;;;;1.10;0.80;;;22.90;1.00;;;;;;5074336;28;20475;-59
2023/07/15 03:02:23;;;;;;;1.50;0.70;;;23.00;1.00;;;;;;5074295;28;20901;-58
2023/07/15 03:04:50;;;;;;;0.90;0.68;;;22.90;1.00;;;;;;5075070;28;20912;-58
2023/07/15 03:07:18;;;;;;;1.40;0.70;;;22.90;1.00;;;;;;5075630;28;20431;-59
2023/07/15 03:09:46;;;;;;;1.00;0.70;;;22.90;1.00;;;;;;5073782;28;20431;-58
2023/07/15 03:12:13;;;;;;;0.90;0.70;;;22.90;1.00;;;;;;5074809;28;20419;-59
2023/07/15 03:14:41;;;;;;;0.90;0.70;;;22.90;1.00;;;;;;5075336;28;20431;-59
2023/07/15 03:17:09;;;;;;;0.90;0.70;;;22.80;1.00;;;;;;5075687;28;20523;-59
2023/07/15 03:19:37;;;;;;;0.90;0.60;;;22.80;1.00;;;;;;5074487;28;20435;-59
2023/07/15 03:22:04;;;;;;;1.00;0.80;;;22.80;1.00;;;;;;5072992;28;20432;-59
2023/07/15 03:24:33;;;;;;;1.50;0.70;;;22.70;5.60;;;;;;5072200;28;20415;-59
2023/07/15 03:26:59;;;;;;;1.50;0.80;;;22.70;12.40;;;;;;5071510;28;20474;-58
2023/07/15 03:29:26;;;;;;;1.20;0.73;;;22.70;17.70;;;;;;5071602;28;20435;-59
2023/07/15 03:31:54;;;;;;;1.00;0.80;;;22.70;24.20;;;;;;5072277;28;20501;-59
2023/07/15 03:34:21;;;;;;;1.48;0.80;;;22.70;27.40;;;;;;5072729;28;20500;-58
2023/07/15 03:36:48;;;;;;;0.90;0.70;;;22.70;35.10;;;;;;5073116;28;20583;-59
2023/07/15 03:39:15;;;;;;;1.50;0.70;;;22.70;40.70;;;;;;5073691;28;20481;-59
2023/07/15 03:41:43;;;;;;;0.90;0.70;;;22.70;47.40;;;;;;5073395;28;20419;-59
2023/07/15 03:44:10;;;;;;;1.40;0.80;;;22.70;64.00;;;;;;5074644;28;20850;-58
2023/07/15 03:46:37;;;;;;;1.00;0.80;;;22.70;82.00;;;;;;5075220;28;20901;-58
2023/07/15 03:49:06;;;;;;;1.00;0.80;;;22.70;99.60;;;;;;5074401;28;20435;-59
2023/07/15 03:51:34;;;;;;;1.20;0.90;;;22.70;99.90;;;;;;5074335;28;20427;-58
2023/07/15 03:54:01;;;;;;;0.90;0.80;;;22.70;99.90;;;;;;5074533;28;20778;-59
2023/07/15 03:56:28;;;;;;;0.90;0.70;;;22.80;99.90;;;;;;5074058;28;20854;-59
2023/07/15 03:58:56;;;;;;;1.10;0.80;;;22.70;99.90;;;;;;5074371;28;20423;-59
2023/07/15 04:01:23;;;;;;;1.00;0.70;;;22.70;99.90;;;;;;5073861;28;20435;-59
2023/07/15 04:03:50;;;;;;;1.10;0.70;;;22.70;99.90;;;;;;5074691;28;20473;-59
2023/07/15 04:06:17;;;;;;;0.90;0.65;;;22.70;99.90;;;;;;5074319;28;20800;-58
2023/07/15 04:08:44;;;;;;;1.00;0.80;;;22.60;99.90;;;;;;5074622;28;20419;-59
2023/07/15 04:11:11;;;;;;;1.20;0.80;;;22.70;99.90;;;;;;5073236;28;20431;-59
2023/07/15 04:13:38;;;;;;;0.90;0.80;;;22.60;99.90;;;;;;5074291;28;20797;-59
2023/07/15 04:16:07;;;;;;;1.02;0.77;;;22.70;99.90;;;;;;5072762;28;20427;-59
2023/07/15 04:18:34;;;;;;;1.42;0.80;;;22.70;99.90;;;;;;5073388;28;20441;-59
2023/07/15 04:21:01;;;;;;;1.00;0.80;;;22.70;99.90;;;;;;5072773;28;20685;-59
2023/07/15 04:23:28;;;;;;;1.80;0.70;;;22.60;99.90;;;;;;5073707;28;20431;-58
2023/07/15 04:25:55;;;;;;;1.20;0.80;;;22.60;99.90;;;;;;5074458;28;20482;-58
2023/07/15 04:28:22;;;;;;;1.07;0.77;;;22.60;99.90;;;;;;5073704;28;20449;-58
2023/07/15 04:30:49;;;;;;;1.20;0.80;;;22.60;99.90;;;;;;5072413;28;20431;-59
2023/07/15 04:33:17;;;;;;;1.63;0.80;;;22.50;99.90;;;;;;5072064;28;20419;-58
2023/07/15 04:35:45;;;;;;;1.40;0.80;;;22.60;99.90;;;;;;5072209;28;20428;-59
2023/07/15 04:38:12;;;;;;;0.90;0.70;;;22.60;99.90;;;;;;5073427;28;20539;-59
2023/07/15 04:40:39;;;;;;;0.90;0.70;;;22.60;99.90;;;;;;5077678;28;20757;-59
2023/07/15 04:43:06;;;;;;;1.30;0.70;;;22.70;99.90;;;;;;5077215;28;20431;-58
2023/07/15 04:45:33;;;;;;;1.20;0.80;;;22.70;99.90;;;;;;5077389;28;20419;-59
2023/07/15 04:48:00;;;;;;;1.00;0.80;;;22.80;99.90;;;;;;5077196;28;20430;-59
2023/07/15 04:50:29;;;;;;;0.80;0.70;;;22.80;89.10;;;;;;5077263;28;20492;-59
2023/07/15 04:52:56;;;;;;;1.20;0.80;;;22.80;60.00;;;;;;5076966;28;20431;-59
2023/07/15 04:55:23;;;;;;;0.90;0.60;;;22.80;56.70;;;;;;5076764;28;20434;-59
2023/07/15 04:57:50;;;;;;;1.00;0.70;;;22.90;22.30;;;;;;5075776;28;20441;-58
2023/07/15 05:00:20;;;;;;;1.20;0.70;;;22.90;2.60;;;;;;5075495;28;20427;-58
2023/07/15 05:02:49;;;;;;;0.80;0.70;;;23.00;1.00;;;;;;5075845;28;20484;-59
2023/07/15 05:05:16;;;;;;;0.90;0.70;;;23.10;1.00;;;;;;5077432;28;20789;-58
2023/07/15 05:07:45;;;;;;;0.70;0.60;;;23.10;1.00;;;;;;5076809;28;20434;-59
2023/07/15 05:10:12;;;;;;;0.80;0.60;;;23.20;1.00;;;;;;5077224;28;20469;-59
2023/07/15 05:12:40;;;;;;;0.93;0.70;;;23.20;1.00;;;;;;5077036;28;20435;-59
2023/07/15 05:15:09;;;;;;;0.90;0.57;;;23.20;1.00;;;;;;5076645;28;20420;-58
2023/07/15 05:17:37;;;;;;;0.70;0.60;;;23.30;1.00;;;;;;5076024;28;20497;-58
2023/07/15 05:20:05;;;;;;;1.13;0.60;;;23.30;1.00;;;;;;5075793;28;20670;-58
2023/07/15 05:22:33;;;;;;;0.80;0.60;;;23.30;1.00;;;;;;5076104;28;20802;-59
2023/07/15 05:25:01;;;;;;;1.30;0.70;;;23.40;1.00;;;;;;5076582;28;20428;-58
2023/07/15 05:27:28;;;;;;;0.70;0.57;;;23.40;1.00;;;;;;5075448;28;20424;-58
2023/07/15 05:29:55;;;;;;;1.70;0.60;;;23.50;1.00;;;;;;5076731;28;20424;-57
2023/07/15 05:32:22;;;;;;;0.90;0.60;;;23.50;1.00;;;;;;5077079;28;20569;-58
2023/07/15 05:34:49;;;;;;;0.70;0.60;;;23.50;1.00;;;;;;5076034;28;20432;-56
2023/07/15 05:37:16;;;;;;;1.50;0.60;;;23.60;1.00;;;;;;5076771;28;20850;-58
2023/07/15 05:39:45;;;;;;;0.90;0.60;;;23.60;1.00;;;;;;5076219;28;20502;-58
2023/07/15 05:42:14;;;;;;;1.02;0.60;;;23.60;1.00;;;;;;5076252;28;20419;-58
2023/07/15 05:44:41;;;;;;;0.90;0.60;;;23.60;1.00;;;;;;5076794;28;20419;-59
2023/07/15 05:47:08;;;;;;;1.00;0.60;;;23.60;1.00;;;;;;5077128;28;20473;-58
2023/07/15 05:49:35;;;;;;;0.83;0.60;;;23.70;1.00;;;;;;5076315;28;20777;-58
2023/07/15 05:52:01;;;;;;;0.90;0.70;;;23.80;1.00;;;;;;5075581;28;20497;-58
2023/07/15 05:54:28;;;;;;;1.50;0.60;;;23.90;1.00;;;;;;5075680;28;20781;-58
2023/07/15 05:56:55;;;;;;;1.10;0.70;;;23.90;1.00;;;;;;5075977;28;20786;-58
2023/07/15 05:59:24;;;;;;;0.80;0.60;;;24.00;1.00;;;;;;5076042;28;20509;-58
2023/07/15 06:01:51;;;;;;;0.80;0.70;;;24.00;1.00;;;;;;5076499;28;20489;-59
2023/07/15 06:04:20;;;;;;;0.90;0.70;;;24.00;1.00;;;;;;5075684;28;20431;-58
2023/07/15 06:06:47;;;;;;;1.90;0.70;;;24.00;1.00;;;;;;5074387;28;20431;-58
2023/07/15 06:09:14;;;;;;;0.90;0.60;;;24.10;1.00;;;;;;5073317;28;20415;-59
2023/07/15 06:11:41;;;;;;;0.82;0.60;;;24.20;1.00;;;;;;5075955;28;20423;-59
2023/07/15 06:14:08;;;;;;;0.98;0.60;;;24.30;1.00;;;;;;5075067;28;20485;-59
2023/07/15 06:16:36;;;;;;;1.00;0.60;;;24.30;1.00;;;;;;5076099;28;20432;-58
2023/07/15 06:19:04;;;;;;;0.87;0.60;;;24.40;1.00;;;;;;5075161;28;20493;-59
2023/07/15 06:21:31;;;;;;;0.90;0.70;;;24.50;1.00;;;;;;5076813;28;20419;-59
2023/07/15 06:23:58;;;;;;;0.80;0.60;;;24.60;1.00;;;;;;5075223;28;20470;-57
2023/07/15 06:26:25;;;;;;;0.80;0.50;;;24.70;1.00;;;;;;5076259;28;20430;-59
2023/07/15 06:28:52;;;;;;;1.20;0.60;;;24.80;1.00;;;;;;5076084;28;20423;-58
2023/07/15 06:31:19;;;;;;;0.80;0.70;;;24.90;1.00;;;;;;5075867;28;20419;-58
2023/07/15 06:33:48;;;;;;;0.80;0.50;;;25.00;1.00;;;;;;5074885;28;20888;-58
2023/07/15 06:36:16;;;;;;;1.15;0.60;;;25.10;1.00;;;;;;5075405;28;20428;-56
2023/07/15 06:38:43;;;;;;;1.20;0.80;;;25.10;1.00;;;;;;5074403;28;20456;-58
2023/07/15 06:41:10;;;;;;;0.90;0.60;;;25.30;1.00;;;;;;5073915;28;20439;-59
2023/07/15 06:43:37;;;;;;;1.10;0.60;;;25.40;1.00;;;;;;5075280;28;20502;-57
2023/07/15 06:46:04;;;;;;;0.82;0.60;;;25.50;1.00;;;;;;5075409;28;20870;-58
2023/07/15 06:48:31;;;;;;;0.88;0.60;;;25.70;1.00;;;;;;5075384;28;20458;-56
2023/07/15 06:50:59;;;;;;;1.20;0.70;;;25.70;1.00;;;;;;5075324;28;20435;-58
2023/07/15 06:53:26;;;;;;;0.80;0.60;;;25.80;1.00;;;;;;5075185;28;20431;-58
2023/07/15 06:55:53;;;;;;;1.50;0.60;;;26.00;1.00;;;;;;5075878;28;20446;-59
2023/07/15 06:58:20;;;;;;;1.50;0.60;;;26.00;1.00;;;;;;5075159;28;20931;-57
2023/07/15 07:00:47;;;;;;;1.10;0.60;;;26.10;1.00;;;;;;5074568;28;20446;-58
2023/07/15 07:03:14;;;;;;;1.23;0.60;;;26.20;1.00;;;;;;5073961;28;20502;-57
2023/07/15 07:05:41;;;;;;;0.90;0.60;;;26.30;1.00;;;;;;5073785;28;21028;-60
2023/07/15 07:08:10;;;;;;;2.40;0.50;;;26.50;1.00;;;;;;5073540;28;20849;-56
2023/07/15 07:10:37;;;;;;;1.00;0.60;;;26.60;1.00;;;;;;5073595;28;20839;-58
2023/07/15 07:13:04;;;;;;;1.55;0.60;;;26.80;1.00;;;;;;5074062;28;20431;-56
2023/07/15 07:15:31;;;;;;;1.15;0.60;;;27.00;1.00;;;;;;5074241;28;20412;-56
2023/07/15 07:17:58;;;;;;;0.90;0.60;;;27.20;1.00;;;;;;5074413;28;20435;-57
2023/07/15 07:20:25;;;;;;;1.00;0.60;;;27.40;1.00;;;;;;5074392;28;20479;-60
2023/07/15 07:22:52;;;;;;;0.70;0.60;;;27.50;1.00;;;;;;5073617;28;20493;-59
2023/07/15 07:25:21;;;;;;;0.80;0.70;;;27.50;1.00;;;;;;5072330;28;20427;-59
2023/07/15 07:27:47;;;;;;;0.90;0.60;;;27.60;1.00;;;;;;5072065;28;20427;-59
2023/07/15 07:30:15;;;;;;;0.77;0.60;;;27.60;1.00;;;;;;5072317;28;20425;-58
2023/07/15 07:32:42;;;;;;;0.90;0.60;;;27.60;1.00;;;;;;5072586;28;20534;-59
2023/07/15 07:35:10;;;;;;;1.10;0.70;;;27.80;1.00;;;;;;5063389;28;20433;-60
2023/07/15 07:37:37;;;;;;;1.40;0.70;;;27.90;1.00;;;;;;5043901;28;20503;-59
2023/07/15 07:40:04;;;;;;;1.70;0.60;;;28.00;1.00;;;;;;5047669;28;20471;-58
2023/07/15 07:42:33;;;;;;;0.85;0.50;;;28.00;1.00;;;;;;5051764;28;20849;-60
2023/07/15 07:45:00;;;;;;;0.70;0.60;;;28.10;1.00;;;;;;5050359;28;20732;-59
2023/07/15 07:47:27;;;;;;;1.40;0.60;;;28.20;1.00;;;;;;5044156;28;21164;-59
2023/07/15 07:49:53;;;;;;;1.20;0.60;;;28.30;1.00;;;;;;5045318;28;20498;-58
2023/07/15 07:52:21;;;;;;;0.90;0.60;;;28.40;1.00;;;;;;5041900;28;20504;-59
2023/07/15 07:54:48;;;;;;;1.10;0.63;;;28.50;1.00;;;;;;5050743;28;20429;-58
2023/07/15 07:57:15;;;;;;;0.77;0.55;;;28.70;1.00;;;;;;5048543;28;20441;-59
2023/07/15 07:59:44;;;;;;;3.00;0.60;;;28.80;1.00;;;;;;5041654;28;20516;-59
2023/07/15 08:02:11;;;;;;;1.00;0.60;;;28.90;1.00;;;;;;5048827;28;20503;-60
2023/07/15 08:04:41;;;;;;;1.20;0.60;;;29.00;1.00;;;;;;5049052;28;20707;-59
2023/07/15 08:07:09;;;;;;;0.80;0.60;;;29.20;1.00;;;;;;5039636;28;20437;-59
2023/07/15 08:09:36;;;;;;;0.82;0.60;;;29.30;1.00;;;;;;5048184;28;20432;-60
2023/07/15 08:12:03;;;;;;;1.00;0.60;;;29.50;1.00;;;;;;5049953;28;20418;-57
2023/07/15 08:14:30;;;;;;;0.80;0.50;;;29.80;1.00;;;;;;5036737;28;20456;-59
2023/07/15 08:16:58;;;;;;;0.80;0.60;;;30.10;1.00;;;;;;5047875;28;20858;-59
2023/07/15 08:19:26;;;;;;;0.95;0.70;;;30.30;1.00;;;;;;5045406;28;20495;-58
2023/07/15 08:21:53;;;;;;;0.80;0.60;;;30.30;1.00;;;;;;5053982;28;20444;-60
2023/07/15 08:24:20;;;;;;;0.73;0.60;;;30.40;1.00;;;;;;5043374;28;20844;-59
2023/07/15 08:26:47;;;;;;;0.82;0.60;;;30.30;1.00;;;;;;5050480;28;20463;-59
2023/07/15 08:29:14;;;;;;;0.80;0.60;;;30.50;1.00;;;;;;5050009;28;20444;-59
2023/07/15 08:31:41;;;;;;;0.70;0.52;;;30.50;1.00;;;;;;5038729;28;20432;-58
2023/07/15 08:34:10;;;;;;;0.90;0.60;;;30.50;1.00;;;;;;5037321;28;20604;-58
2023/07/15 08:36:37;;;;;;;1.02;0.65;;;30.50;1.00;;;;;;5051460;28;20436;-58
2023/07/15 08:39:04;;;;;;;0.82;0.60;;;30.50;1.00;;;;;;5051847;28;20431;-57
2023/07/15 08:41:31;;;;;;;1.10;0.60;;;30.60;1.00;;;;;;5043512;28;20445;-58
2023/07/15 08:43:58;;;;;;;0.80;0.60;;;30.60;1.00;;;;;;5044019;28;20445;-59
2023/07/15 08:46:27;;;;;;;0.82;0.60;;;30.70;1.00;;;;;;5043243;28;20448;-58
2023/07/15 08:48:55;;;;;;;1.10;0.60;;;30.80;1.00;;;;;;5055750;28;20516;-58
2023/07/15 08:51:29;;;;;;;1.10;0.60;;;30.80;1.00;;;;;;5038083;28;20501;-60
2023/07/15 08:53:58;;;;;;;0.70;0.50;;;30.80;1.00;;;;;;5052278;28;20439;-59
2023/07/15 08:56:25;;;;;;;0.80;0.60;;;30.80;1.00;;;;;;5052490;28;20429;-58
2023/07/15 08:58:53;;;;;;;1.10;0.60;;;30.90;1.00;;;;;;5053356;28;20433;-58
2023/07/15 09:01:21;;;;;;;0.90;0.70;;;31.20;1.00;;;;;;5050937;28;20440;-59
2023/07/15 09:03:48;;;;;;;0.80;0.60;;;31.50;1.00;;;;;;5049839;28;20888;-59
2023/07/15 09:06:16;;;;;;;0.80;0.60;;;31.50;1.00;;;;;;5047859;28;20519;-59
2023/07/15 09:08:44;;;;;;;0.80;0.60;;;31.60;1.00;;;;;;5049515;28;20433;-59
2023/07/15 09:11:13;;;;;;;0.73;0.60;;;31.60;1.00;;;;;;5040134;28;20451;-59
2023/07/15 09:13:40;;;;;;;0.83;0.60;;;31.60;1.00;;;;;;5037851;28;20451;-59
2023/07/15 09:16:07;;;;;;;1.10;0.60;;;31.60;1.00;;;;;;5040841;28;20450;-58
2023/07/15 09:18:39;;;;;;;0.90;0.50;;;31.50;1.00;;;;;;5054175;28;20441;-59
2023/07/15 09:21:11;;;;;;;0.80;0.60;;;31.50;1.00;;;;;;5049969;28;20444;-57
2023/07/15 09:23:39;;;;;;;0.70;0.60;;;31.50;1.00;;;;;;5046962;28;20497;-58
2023/07/15 09:26:09;;;;;;;0.70;0.60;;;31.60;1.00;;;;;;5042000;28;20556;-58
2023/07/15 09:28:36;;;;;;;1.70;0.60;;;31.70;1.00;;;;;;5051488;28;20433;-59
2023/07/15 09:31:06;;;;;;;0.85;0.60;;;31.80;1.00;;;;;;5046622;28;20749;-59
2023/07/15 09:33:35;;;;;;;0.70;0.50;;;31.80;1.00;;;;;;5046122;28;20518;-58
2023/07/15 09:36:03;;;;;;;0.90;0.60;;;31.90;1.00;;;;;;5047262;28;21122;-59
2023/07/15 09:38:35;;;;;;;1.00;0.50;;;32.00;1.00;;;;;;5074941;28;20732;-59
2023/07/15 09:41:02;;;;;;;0.90;0.70;;;32.20;1.00;;;;;;5071351;28;20444;-59
2023/07/15 09:46:23;;;;;;;0.85;0.60;;;32.40;1.00;;;;;;5079832;28;20441;-58
2023/07/15 09:48:52;;;;;;;1.30;0.60;;;32.70;1.00;;;;;;5078428;28;20448;-59
2023/07/15 09:51:20;;;;;;;0.90;0.60;;;32.60;1.00;;;;;;5080230;28;20527;-58
2023/07/15 09:53:50;;;;;;;1.00;0.60;;;32.70;1.00;;;;;;5080759;28;20532;-58
2023/07/15 09:56:22;;;;;;;1.30;0.70;;;32.80;1.00;;;;;;5077024;28;20779;-59
2023/07/15 09:58:53;;;;;;;0.70;0.55;;;32.90;1.00;;;;;;5079846;28;20485;-59
2023/07/15 10:01:31;;;;;;;1.00;0.70;;;32.80;1.00;;;;;;5078338;28;20855;-58
2023/07/15 10:04:06;;;;;;;0.70;0.60;;;32.90;1.00;;;;;;5081855;28;20440;-59
2023/07/15 10:06:42;;;;;;;0.80;0.70;;;32.70;1.00;;;;;;5079619;28;20431;-57
2023/07/15 10:09:11;;;;;;;0.70;0.60;;;32.60;1.00;;;;;;5077880;28;20486;-59
2023/07/15 10:11:38;;;;;;;1.42;0.60;;;32.70;1.00;;;;;;5077610;28;20428;-57
2023/07/15 10:14:05;;;;;;;0.90;0.60;;;33.00;1.00;;;;;;5077192;28;20777;-59
2023/07/15 10:16:35;;;;;;;1.05;0.70;;;33.30;1.00;;;;;;5080202;28;21013;-57
2023/07/15 10:19:02;;;;;;;0.80;0.60;;;33.60;1.00;;;;;;5081925;28;20454;-58
2023/07/15 10:21:29;;;;;;;1.00;0.55;;;34.00;1.00;;;;;;5078332;28;21043;-58
2023/07/15 10:24:09;;;;;;;0.80;0.60;;;34.40;1.00;;;;;;5080509;28;20432;-58
2023/07/15 10:26:36;;;;;;;1.00;0.70;;;34.40;1.00;;;;;;5078526;28;20515;-58
2023/07/15 10:29:04;;;;;;;1.10;0.60;;;34.00;1.00;;;;;;5085453;28;20468;-59
2023/07/15 10:31:31;;;;;;;1.20;0.60;;;33.80;1.00;;;;;;5087244;28;20447;-58
2023/07/15 10:34:04;;;;;;;0.95;0.70;;;33.70;1.00;;;;;;5086991;28;20932;-58
2023/07/15 10:36:42;;;;;;;0.80;0.60;;;33.70;1.00;;;;;;5088320;28;20482;-58
2023/07/15 10:39:14;;;;;;;0.93;0.70;;;33.70;1.00;;;;;;5089598;28;20434;-58
2023/07/15 10:41:42;;;;;;;1.10;0.50;;;33.80;1.00;;;;;;5088669;28;20445;-58
2023/07/15 10:44:20;;;;;;;1.25;0.70;;;33.90;1.00;;;;;;5089968;28;20492;-60
2023/07/15 10:46:48;;;;;;;0.90;0.60;;;33.80;1.00;;;;;;5088893;28;20724;-59
2023/07/15 10:49:18;;;;;;;0.90;0.60;;;33.90;1.00;;;;;;5091364;28;20426;-59
2023/07/15 10:51:45;;;;;;;1.00;0.55;;;34.40;1.00;;;;;;5086612;28;20443;-59
2023/07/15 10:54:12;;;;;;;0.65;0.50;;;34.80;1.00;;;;;;5082596;28;20439;-59
2023/07/15 10:56:39;;;;;;;1.20;0.60;;;35.10;1.00;;;;;;5078187;28;20541;-59
2023/07/15 10:59:06;;;;;;;0.80;0.50;;;35.10;1.00;;;;;;5073194;28;20520;-58
2023/07/15 11:01:33;;;;;;;0.60;0.50;;;34.90;1.00;;;;;;5075476;28;20517;-59
2023/07/15 11:04:05;;;;;;;0.60;0.50;;;34.90;1.00;;;;;;5069362;28;20490;-59
2023/07/15 11:06:35;;;;;;;0.70;0.60;;;34.70;1.00;;;;;;5074407;28;20436;-60
2023/07/15 11:09:15;;;;;;;0.80;0.50;;;34.80;1.00;;;;;;5073822;28;20487;-60
2023/07/15 11:11:42;;;;;;;0.60;0.50;;;34.80;1.00;;;;;;5060157;28;20439;-59
2023/07/15 11:14:20;;;;;;;0.63;0.50;;;35.00;1.00;;;;;;5070208;28;20439;-59
2023/07/15 11:16:47;;;;;;;1.40;0.60;;;34.90;1.00;;;;;;5055470;28;20893;-57
2023/07/15 11:19:15;;;;;;;0.70;0.50;;;35.00;1.00;;;;;;5072278;28;20435;-57
2023/07/15 11:21:45;;;;;;;0.70;0.60;;;35.40;1.00;;;;;;5073975;28;20535;-59
2023/07/15 11:24:12;;;;;;;0.90;0.50;;;35.90;1.00;;;;;;5069605;28;20440;-57
2023/07/15 11:26:40;;;;;;;0.70;0.50;;;36.30;1.00;;;;;;5073786;28;20432;-59
2023/07/15 11:29:25;;;;;;;1.80;0.50;;;36.50;1.00;;;;;;5073009;28;20517;-59
2023/07/15 11:31:53;;;;;;;0.90;0.50;;;36.40;1.00;;;;;;5069232;28;21042;-58
2023/07/15 11:34:21;;;;;;;0.80;0.50;;;36.40;1.00;;;;;;5068824;28;20795;-59
2023/07/15 11:36:51;;;;;;;0.80;0.50;;;36.20;1.00;;;;;;5068691;28;20435;-57
2023/07/15 11:39:18;;;;;;;1.20;0.50;;;35.70;1.00;;;;;;5073187;28;20688;-60
2023/07/15 11:41:46;;;;;;;1.00;0.50;;;35.30;1.00;;;;;;5076312;28;20438;-56
2023/07/15 11:44:14;;;;;;;1.20;0.60;;;35.20;1.00;;;;;;5072905;28;20435;-58
2023/07/15 11:46:42;;;;;;;0.90;0.60;;;35.90;1.00;;;;;;5075059;28;20721;-56
2023/07/15 11:49:11;;;;;;;1.10;0.70;;;35.90;1.00;;;;;;5074080;28;20497;-58
2023/07/15 11:51:42;;;;;;;1.70;0.70;;;36.00;1.00;;;;;;5075945;28;20485;-56
2023/07/15 11:54:11;;;;;;;1.10;0.70;;;36.40;1.00;;;;;;5068917;28;20518;-56
2023/07/15 11:56:40;;;;;;;2.00;0.80;;;36.50;1.00;;;;;;5088756;28;20431;-57
2023/07/15 11:59:09;;;;;;;1.70;0.60;;;36.00;1.00;;;;;;5070610;28;20477;-61
2023/07/15 12:01:37;;;;;;;0.70;0.60;;;35.80;1.00;;;;;;5069418;28;20427;-57
2023/07/15 12:04:12;;;;;;;0.80;0.60;;;35.70;1.00;;;;;;5069278;28;20447;-57
2023/07/15 12:06:48;;;;;;;0.90;0.70;;;36.20;1.00;;;;;;5070267;28;20431;-58
2023/07/15 12:09:17;;;;;;;0.80;0.60;;;36.50;1.00;;;;;;5070009;28;20526;-57
2023/07/15 12:11:44;;;;;;;0.80;0.60;;;36.80;1.00;;;;;;5061355;28;20439;-58
2023/07/15 12:14:12;;;;;;;0.80;0.60;;;36.30;1.00;;;;;;5066154;28;20433;-59
2023/07/15 12:16:40;;;;;;;0.80;0.60;;;36.00;1.00;;;;;;5063765;28;20439;-57
2023/07/15 12:19:10;;;;;;;2.00;0.70;;;35.70;1.00;;;;;;5066065;28;20451;-57
2023/07/15 12:21:37;;;;;;;0.90;0.70;;;35.60;1.00;;;;;;5068084;28;20439;-56
2023/07/15 12:24:05;;;;;;;1.20;1.10;;;36.00;1.00;;;;;;5061447;28;20435;-57
2023/07/15 12:26:34;;;;;;;0.80;0.70;;;36.00;1.00;;;;;;5063742;28;20556;-57
2023/07/15 12:29:01;;;;;;;1.00;0.70;;;35.40;1.00;;;;;;5056310;28;20431;-57
2023/07/15 12:31:28;;;;;;;0.80;0.70;;;35.30;1.00;;;;;;5062610;28;20489;-58
2023/07/15 12:33:55;;;;;;;0.80;0.60;;;35.60;1.00;;;;;;5066941;28;20446;-57
2023/07/15 12:36:22;;;;;;;0.80;0.70;;;36.00;1.00;;;;;;5071389;28;20720;-57
2023/07/15 12:38:49;;;;;;;1.05;0.70;;;36.50;1.00;;;;;;5069460;28;21081;-57
2023/07/15 12:41:16;;;;;;;0.80;0.70;;;36.90;1.00;;;;;;5067344;28;20451;-57
2023/07/15 12:43:45;;;;;;;0.73;0.60;;;37.20;1.00;;;;;;5071315;28;20432;-57
2023/07/15 12:46:12;;;;;;;0.80;0.70;;;37.50;1.00;;;;;;5069528;28;20859;-57
2023/07/15 12:48:39;;;;;;;1.00;0.70;;;37.70;1.00;;;;;;5067174;28;20431;-57
2023/07/15 12:51:06;;;;;;;13.73;10.70;;;37.90;1.00;;;;;;5069360;28;20457;-57
2023/07/15 12:53:33;;;;;;;0.90;0.80;;;38.00;1.00;;;;;;5070812;28;20736;-60
2023/07/15 12:56:00;;;;;;;0.82;0.70;;;37.90;1.00;;;;;;5070254;28;20525;-57
2023/07/15 12:58:27;;;;;;;0.90;0.70;;;37.60;1.00;;;;;;5071042;28;20473;-54
2023/07/15 13:00:57;;;;;;;1.60;0.70;;;37.70;1.00;;;;;;5068247;28;20450;-53
2023/07/15 13:03:24;;;;;;;1.50;0.77;;;37.70;1.00;;;;;;5070813;28;20443;-57